createdAt,value
2023-01-17T00:02:48.044Z,10.80
2023-01-17T00:06:23.052Z,11.25
2023-01-17T00:09:40.764Z,11.00
2023-01-17T00:12:49.808Z,9.98
2023-01-17T00:15:55.440Z,9.68
2023-01-17T00:19:12.983Z,9.20
2023-01-17T00:22:36.690Z,9.02
2023-01-17T00:25:54.549Z,9.27
2023-01-17T00:28:57.119Z,9.40
2023-01-17T00:31:59.853Z,8.80
2023-01-17T00:35:02.227Z,9.07
2023-01-17T00:38:09.370Z,9.18
2023-01-17T00:41:13.024Z,10.38
2023-01-17T00:44:30.894Z,8.43
2023-01-17T00:47:48.464Z,9.95
2023-01-17T00:51:06.287Z,8.35
2023-01-17T00:54:26.730Z,9.15
2023-01-17T00:57:45.298Z,8.98
2023-01-17T01:04:20.255Z,9.00
2023-01-17T01:07:37.806Z,9.13
2023-01-17T01:10:57.881Z,9.03
2023-01-17T01:14:15.789Z,8.95
2023-01-17T01:17:33.631Z,8.73
2023-01-17T01:20:51.302Z,9.23
2023-01-17T01:24:08.664Z,10.77
2023-01-17T01:27:29.179Z,10.07
2023-01-17T01:30:46.995Z,9.40
2023-01-17T01:33:53.893Z,9.60
2023-01-17T01:36:59.660Z,10.30
2023-01-17T01:40:04.931Z,10.32
2023-01-17T01:43:15.696Z,9.38
2023-01-17T01:46:22.919Z,10.13
2023-01-17T01:49:29.930Z,10.00
2023-01-17T01:52:36.474Z,10.70
2023-01-17T01:55:43.742Z,11.07
2023-01-17T01:58:53.873Z,10.53
2023-01-17T02:01:59.861Z,11.00
2023-01-17T02:05:05.294Z,11.25
2023-01-17T02:08:11.812Z,9.85
2023-01-17T02:11:17.375Z,11.75
2023-01-17T02:14:25.584Z,10.85
2023-01-17T02:17:36.061Z,10.55
2023-01-17T02:21:00.114Z,9.63
2023-01-17T02:24:24.357Z,11.40
2023-01-17T02:27:30.481Z,11.00
2023-01-17T02:30:39.747Z,10.65
2023-01-17T02:33:48.644Z,11.13
2023-01-17T02:36:55.716Z,10.82
2023-01-17T02:40:03.250Z,11.07
2023-01-17T02:43:11.723Z,11.98
2023-01-17T02:46:19.896Z,10.90
2023-01-17T02:49:26.564Z,11.15
2023-01-17T02:52:44.449Z,11.48
2023-01-17T02:55:56.379Z,11.55
2023-01-17T02:59:07.649Z,11.05
2023-01-17T03:02:20.391Z,10.30
2023-01-17T03:05:27.618Z,11.30
2023-01-17T03:08:33.264Z,11.82
2023-01-17T03:11:38.839Z,11.93
2023-01-17T03:14:44.050Z,10.90
2023-01-17T03:17:54.213Z,10.25
2023-01-17T03:20:59.701Z,10.77
2023-01-17T03:24:05.567Z,10.75
2023-01-17T03:27:10.864Z,11.48
2023-01-17T03:30:16.881Z,13.27
2023-01-17T03:33:24.749Z,10.27
2023-01-17T03:36:30.296Z,10.43
2023-01-17T03:39:35.413Z,10.40
2023-01-17T03:42:40.985Z,11.18
2023-01-17T03:45:46.965Z,10.65
2023-01-17T03:48:54.963Z,11.27
2023-01-17T03:52:00.314Z,11.15
2023-01-17T03:55:05.700Z,11.18
2023-01-17T03:58:10.998Z,10.55
2023-01-17T04:01:16.561Z,11.48
2023-01-17T04:04:25.012Z,10.57
2023-01-17T04:07:30.644Z,11.30
2023-01-17T04:10:36.266Z,11.18
2023-01-17T04:13:41.381Z,10.80
2023-01-17T04:16:46.755Z,9.85
2023-01-17T04:19:54.829Z,10.93
2023-01-17T04:23:00.464Z,10.68
2023-01-17T04:26:06.453Z,9.52
2023-01-17T04:29:11.536Z,11.43
2023-01-17T04:32:17.192Z,11.30
2023-01-17T04:35:25.272Z,11.82
2023-01-17T04:38:30.877Z,11.55
2023-01-17T04:41:36.410Z,11.30
2023-01-17T04:44:42.008Z,10.65
2023-01-17T04:47:47.356Z,11.02
2023-01-17T04:50:55.273Z,10.55
2023-01-17T04:54:00.566Z,11.68
2023-01-17T04:57:06.179Z,11.68
2023-01-17T05:00:12.228Z,11.10
2023-01-17T05:03:17.725Z,11.80
2023-01-17T05:06:25.790Z,10.85
2023-01-17T05:09:31.200Z,12.00
2023-01-17T05:12:36.635Z,13.05
2023-01-17T05:15:42.070Z,12.05
2023-01-17T05:18:47.495Z,11.52
2023-01-17T05:21:55.473Z,13.35
2023-01-17T05:25:00.627Z,11.65
2023-01-17T05:28:06.132Z,11.05
2023-01-17T05:31:11.358Z,11.20
2023-01-17T05:34:17.635Z,10.90
2023-01-17T05:37:25.714Z,11.70
2023-01-17T05:40:31.767Z,11.90
2023-01-17T05:43:37.200Z,11.82
2023-01-17T05:46:42.629Z,11.45
2023-01-17T05:49:48.425Z,11.63
2023-01-17T05:52:57.151Z,10.95
2023-01-17T05:56:02.681Z,12.07
2023-01-17T05:59:08.090Z,11.45
2023-01-17T06:02:13.442Z,12.02
2023-01-17T06:05:19.660Z,12.40
2023-01-17T06:08:27.534Z,11.95
2023-01-17T06:11:33.026Z,11.27
2023-01-17T06:14:38.483Z,11.38
2023-01-17T06:17:43.949Z,11.65
2023-01-17T06:20:49.172Z,10.57
2023-01-17T06:23:58.181Z,12.02
2023-01-17T06:27:03.710Z,11.52
2023-01-17T06:30:09.824Z,12.30
2023-01-17T06:33:15.568Z,13.23
2023-01-17T06:36:21.240Z,11.07
2023-01-17T06:39:29.227Z,11.75
2023-01-17T06:42:34.411Z,10.88
2023-01-17T06:45:40.028Z,11.23
2023-01-17T06:48:46.325Z,12.07
2023-01-17T06:51:51.769Z,12.93
2023-01-17T06:54:59.559Z,11.45
2023-01-17T06:58:05.619Z,11.25
2023-01-17T07:01:12.479Z,11.40
2023-01-17T07:04:17.787Z,11.65
2023-01-17T07:07:23.302Z,11.55
2023-01-17T07:10:31.681Z,11.32
2023-01-17T07:13:36.929Z,12.20
2023-01-17T07:16:45.559Z,12.00
2023-01-17T07:22:55.715Z,11.95
2023-01-17T07:26:04.283Z,12.10
2023-01-17T07:29:09.625Z,11.95
2023-01-17T07:32:14.804Z,11.32
2023-01-17T07:35:20.452Z,12.20
2023-01-17T07:38:25.866Z,11.70
2023-01-17T07:41:34.901Z,11.98
2023-01-17T07:44:44.501Z,12.05
2023-01-17T07:47:50.271Z,12.10
2023-01-17T07:50:56.382Z,13.02
2023-01-17T07:54:01.979Z,12.45
2023-01-17T07:57:14.391Z,11.32
2023-01-17T08:00:20.346Z,11.90
2023-01-17T08:03:26.776Z,13.07
2023-01-17T08:06:32.389Z,12.73
2023-01-17T08:09:37.888Z,12.77
2023-01-17T08:12:45.838Z,12.10
2023-01-17T08:15:51.609Z,12.23
2023-01-17T08:18:57.895Z,12.85
2023-01-17T08:22:03.489Z,13.93
2023-01-17T08:25:09.009Z,12.27
2023-01-17T08:28:17.598Z,13.35
2023-01-17T08:31:22.968Z,11.88
2023-01-17T08:34:28.706Z,13.32
2023-01-17T08:37:33.703Z,12.30
2023-01-17T08:40:39.014Z,14.00
2023-01-17T08:43:46.791Z,12.25
2023-01-17T08:46:52.214Z,12.95
2023-01-17T08:49:59.346Z,13.50
2023-01-17T08:53:04.928Z,13.07
2023-01-17T08:56:11.086Z,14.27
2023-01-17T08:59:19.263Z,12.73
2023-01-17T09:02:24.996Z,13.50
2023-01-17T09:05:30.420Z,12.23
2023-01-17T09:08:36.035Z,13.65
2023-01-17T09:11:42.120Z,13.98
2023-01-17T09:14:49.823Z,12.40
2023-01-17T09:17:58.422Z,12.17
2023-01-17T09:21:12.351Z,13.55
2023-01-17T09:24:17.691Z,11.52
2023-01-17T09:27:23.593Z,12.55
2023-01-17T09:30:31.738Z,13.00
2023-01-17T09:33:37.327Z,12.52
2023-01-17T09:36:42.704Z,12.07
2023-01-17T09:39:47.833Z,12.10
2023-01-17T09:42:55.085Z,14.48
2023-01-17T09:46:03.321Z,12.60
2023-01-17T09:49:10.775Z,13.48
2023-01-17T09:52:17.996Z,12.55
2023-01-17T09:55:23.418Z,14.32
2023-01-17T09:58:31.062Z,13.27
2023-01-17T10:01:42.324Z,13.07
2023-01-17T10:04:56.090Z,13.65
2023-01-17T10:08:05.911Z,13.23
2023-01-17T10:11:20.296Z,14.43
2023-01-17T10:14:41.925Z,12.60
2023-01-17T10:17:54.742Z,12.65
2023-01-17T10:21:04.749Z,14.02
2023-01-17T10:24:25.368Z,13.07
2023-01-17T10:27:32.670Z,12.45
2023-01-17T10:30:40.454Z,13.45
2023-01-17T10:33:51.424Z,13.48
2023-01-17T10:37:00.686Z,13.02
2023-01-17T10:40:16.071Z,13.75
2023-01-17T10:43:23.481Z,13.65
2023-01-17T10:46:30.731Z,15.00
2023-01-17T10:49:41.482Z,14.82
2023-01-17T10:52:50.998Z,13.65
2023-01-17T10:55:56.630Z,14.77
2023-01-17T10:59:11.985Z,14.20
2023-01-17T11:02:21.593Z,15.40
2023-01-17T11:05:31.610Z,15.10
2023-01-17T11:08:51.941Z,14.63
2023-01-17T11:11:57.075Z,15.57
2023-01-17T11:15:06.917Z,15.30
2023-01-17T11:18:18.448Z,15.68
2023-01-17T11:21:27.695Z,16.63
2023-01-17T11:24:36.224Z,16.25
2023-01-17T11:27:43.485Z,15.35
2023-01-17T11:30:54.805Z,15.07
2023-01-17T11:34:10.624Z,16.80
2023-01-17T11:37:26.422Z,16.40
2023-01-17T11:40:32.767Z,17.23
2023-01-17T11:43:52.035Z,17.20
2023-01-17T11:47:11.428Z,16.40
2023-01-17T11:50:26.769Z,15.70
2023-01-17T11:53:35.937Z,17.77
2023-01-17T11:56:44.390Z,16.73
2023-01-17T12:03:07.126Z,16.45
2023-01-17T12:06:18.210Z,15.63
2023-01-17T12:09:29.074Z,15.50
2023-01-17T12:12:54.544Z,16.02
2023-01-17T12:16:18.788Z,14.75
2023-01-17T12:19:38.424Z,15.85
2023-01-17T12:22:54.136Z,16.73
2023-01-17T12:26:08.302Z,16.58
2023-01-17T12:29:28.457Z,17.35
2023-01-17T12:32:44.395Z,16.75
2023-01-17T12:35:53.120Z,15.45
2023-01-17T12:38:58.342Z,15.70
2023-01-17T12:42:07.930Z,16.05
2023-01-17T12:45:17.004Z,16.02
2023-01-17T12:48:23.079Z,15.80
2023-01-17T12:51:30.927Z,14.70
2023-01-17T12:54:38.284Z,14.98
2023-01-17T12:57:49.927Z,16.07
2023-01-17T13:01:00.140Z,15.80
2023-01-17T13:04:12.123Z,15.15
2023-01-17T13:07:21.760Z,14.38
2023-01-17T13:10:32.114Z,14.73
2023-01-17T13:13:41.660Z,15.23
2023-01-17T13:16:50.565Z,13.30
2023-01-17T13:19:58.469Z,14.48
2023-01-17T13:23:06.931Z,14.30
2023-01-17T13:26:17.052Z,12.82
2023-01-17T13:29:30.617Z,14.02
2023-01-17T13:32:50.769Z,12.60
2023-01-17T13:36:00.115Z,12.98
2023-01-17T13:39:13.825Z,12.95
2023-01-17T13:42:26.776Z,12.90
2023-01-17T13:45:36.210Z,13.38
2023-01-17T13:48:42.247Z,13.13
2023-01-17T13:52:05.516Z,11.73
2023-01-17T13:55:11.017Z,13.45
2023-01-17T13:58:38.298Z,13.00
2023-01-17T14:01:56.656Z,12.50
2023-01-17T14:05:13.211Z,13.27
2023-01-17T14:08:20.860Z,11.65
2023-01-17T14:11:25.977Z,12.13
2023-01-17T14:14:38.695Z,12.18
2023-01-17T14:18:01.355Z,12.07
2023-01-17T14:21:14.025Z,13.18
2023-01-17T14:24:20.221Z,12.25
2023-01-17T14:27:27.498Z,12.48
2023-01-17T14:30:37.950Z,13.03
2023-01-17T14:33:43.849Z,13.10
2023-01-17T14:36:52.034Z,13.93
2023-01-17T14:39:57.493Z,12.07
2023-01-17T14:43:03.990Z,12.13
2023-01-17T14:46:11.239Z,12.82
2023-01-17T14:49:24.295Z,12.50
2023-01-17T14:52:32.613Z,11.85
2023-01-17T14:55:38.086Z,12.15
2023-01-17T14:58:46.926Z,13.48
2023-01-17T15:02:07.183Z,12.25
2023-01-17T15:05:15.817Z,13.68
2023-01-17T15:08:25.198Z,12.75
2023-01-17T15:11:31.373Z,13.18
2023-01-17T15:14:40.362Z,13.85
2023-01-17T15:17:45.396Z,13.60
2023-01-17T15:20:53.733Z,13.18
2023-01-17T15:27:07.913Z,12.73
2023-01-17T15:30:15.430Z,13.63
2023-01-17T15:33:21.552Z,12.95
2023-01-17T15:36:30.304Z,12.85
2023-01-17T15:42:45.817Z,13.85
2023-01-17T15:45:58.459Z,14.15
2023-01-17T15:49:10.483Z,13.73
2023-01-17T15:52:18.807Z,13.63
2023-01-17T15:55:27.750Z,13.23
2023-01-17T15:58:35.590Z,13.27
2023-01-17T16:01:40.981Z,15.20
2023-01-17T16:04:46.681Z,12.93
2023-01-17T16:07:52.648Z,12.90
2023-01-17T16:11:02.321Z,13.10
2023-01-17T16:14:10.795Z,13.48
2023-01-17T16:17:19.714Z,12.90
2023-01-17T16:20:26.004Z,12.90
2023-01-17T16:23:31.875Z,13.40
2023-01-17T16:26:37.710Z,12.77
2023-01-17T16:29:46.288Z,11.85
2023-01-17T16:35:57.278Z,12.63
2023-01-17T16:39:02.570Z,12.60
2023-01-17T16:42:07.981Z,13.05
2023-01-17T16:45:16.881Z,13.07
2023-01-17T16:48:22.318Z,13.60
2023-01-17T16:51:28.010Z,13.75
2023-01-17T16:54:33.286Z,14.27
2023-01-17T16:57:38.835Z,14.18
2023-01-17T17:00:46.732Z,14.55
2023-01-17T17:03:55.442Z,15.07
2023-01-17T17:07:00.768Z,15.52
2023-01-17T17:10:06.314Z,15.85
2023-01-17T17:13:11.452Z,17.27
2023-01-17T17:16:20.767Z,15.60
2023-01-17T17:19:26.014Z,16.63
2023-01-17T17:22:32.922Z,16.98
2023-01-17T17:25:38.098Z,17.92
2023-01-17T17:28:43.375Z,16.52
2023-01-17T17:31:52.187Z,18.38
2023-01-17T17:34:57.921Z,18.77
2023-01-17T17:38:05.668Z,20.13
2023-01-17T17:41:12.724Z,18.38
2023-01-17T17:44:18.378Z,18.48
2023-01-17T17:47:27.105Z,18.75
2023-01-17T17:50:32.702Z,18.98
2023-01-17T17:53:37.781Z,18.17
2023-01-17T17:56:46.719Z,17.80
2023-01-17T17:59:51.700Z,19.13
2023-01-17T18:02:59.876Z,19.20
2023-01-17T18:06:08.462Z,16.98
2023-01-17T18:12:18.720Z,19.38
2023-01-17T18:15:24.462Z,18.70
2023-01-17T18:18:32.470Z,19.50
2023-01-17T18:21:39.232Z,18.77
2023-01-17T18:24:44.588Z,18.17
2023-01-17T18:27:50.310Z,18.25
2023-01-17T18:30:55.563Z,19.10
2023-01-17T18:34:05.000Z,19.60
2023-01-17T18:37:10.555Z,20.17
2023-01-17T18:40:16.354Z,20.00
2023-01-17T18:43:21.556Z,20.40
2023-01-17T18:46:27.569Z,20.00
2023-01-17T18:49:35.673Z,18.80
2023-01-17T18:52:41.476Z,20.27
2023-01-17T18:55:57.061Z,20.52
2023-01-17T18:59:02.484Z,21.27
2023-01-17T19:02:07.788Z,20.48
2023-01-17T19:05:18.177Z,21.42
2023-01-17T19:08:23.447Z,20.70
2023-01-17T19:11:29.834Z,20.40
2023-01-17T19:14:35.484Z,20.50
2023-01-17T19:17:40.794Z,20.27
2023-01-17T19:20:48.851Z,19.10
2023-01-17T19:23:54.106Z,18.73
2023-01-17T19:26:59.576Z,19.27
2023-01-17T19:30:05.119Z,18.60
2023-01-17T19:33:10.926Z,18.13
2023-01-17T19:36:21.067Z,19.40
2023-01-17T19:39:28.801Z,18.45
2023-01-17T19:42:34.271Z,18.15
2023-01-17T19:45:39.600Z,19.90
2023-01-17T19:48:45.057Z,18.20
2023-01-17T19:51:53.391Z,18.77
2023-01-17T19:54:58.880Z,20.30
2023-01-17T19:58:04.526Z,19.55
2023-01-17T20:01:11.835Z,18.38
2023-01-17T20:04:18.333Z,20.35
2023-01-17T20:07:26.916Z,18.90
2023-01-17T20:10:32.543Z,19.48
2023-01-17T20:13:38.047Z,18.83
2023-01-17T20:16:43.749Z,18.75
2023-01-17T20:19:49.357Z,19.25
2023-01-17T20:22:57.527Z,19.23
2023-01-17T20:26:04.918Z,19.08
2023-01-17T20:29:10.998Z,21.30
2023-01-17T20:32:16.484Z,20.15
2023-01-17T20:35:21.681Z,18.98
2023-01-17T20:38:43.624Z,19.10
2023-01-17T20:41:51.638Z,21.15
2023-01-17T20:44:57.109Z,20.48
2023-01-17T20:48:02.525Z,20.58
2023-01-17T20:51:10.749Z,19.38
2023-01-17T20:54:19.985Z,19.13
2023-01-17T20:57:25.171Z,20.02
2023-01-17T21:00:30.512Z,19.95
2023-01-17T21:03:36.652Z,18.70
2023-01-17T21:06:43.100Z,18.55
2023-01-17T21:09:50.787Z,19.05
2023-01-17T21:12:56.245Z,18.03
2023-01-17T21:16:01.416Z,18.08
2023-01-17T21:19:06.762Z,18.58
2023-01-17T21:22:15.034Z,18.08
2023-01-17T21:25:22.953Z,18.63
2023-01-17T21:28:29.179Z,17.23
2023-01-17T21:31:37.118Z,20.92
2023-01-17T21:34:42.324Z,19.13
2023-01-17T21:37:51.187Z,18.15
2023-01-17T21:40:59.822Z,17.23
2023-01-17T21:44:08.209Z,17.48
2023-01-17T21:50:32.457Z,18.00
2023-01-17T21:53:38.424Z,18.33
2023-01-17T21:56:58.880Z,16.77
2023-01-17T22:00:04.373Z,17.25
2023-01-17T22:03:17.022Z,17.95
2023-01-17T22:06:22.736Z,19.58
2023-01-17T22:09:27.962Z,18.35
2023-01-17T22:12:35.879Z,18.67
2023-01-17T22:15:41.611Z,19.05
2023-01-17T22:18:47.793Z,20.02
2023-01-17T22:21:53.238Z,20.08
2023-01-17T22:24:58.784Z,19.10
2023-01-17T22:28:07.155Z,19.65
2023-01-17T22:31:13.808Z,20.63
2023-01-17T22:34:19.294Z,19.00
2023-01-17T22:37:24.699Z,18.77
2023-01-17T22:40:31.805Z,20.13
2023-01-17T22:43:41.442Z,19.27
2023-01-17T22:46:47.137Z,18.02
2023-01-17T22:49:52.191Z,19.23
2023-01-17T22:52:57.914Z,19.00
2023-01-17T22:56:04.349Z,19.88
2023-01-17T22:59:12.589Z,18.65
2023-01-17T23:02:18.606Z,17.23
2023-01-17T23:05:23.770Z,18.15
2023-01-17T23:08:29.255Z,17.30
2023-01-17T23:11:49.196Z,18.60
2023-01-17T23:15:09.343Z,18.85
2023-01-17T23:18:27.281Z,18.55
2023-01-17T23:21:52.796Z,18.85
2023-01-17T23:24:58.989Z,18.02
2023-01-17T23:28:22.136Z,17.60
2023-01-17T23:31:30.283Z,18.58
2023-01-17T23:37:53.018Z,20.60
2023-01-17T23:41:15.249Z,20.23
2023-01-17T23:44:20.796Z,19.27
2023-01-17T23:47:28.712Z,19.83
2023-01-17T23:50:34.011Z,19.37
2023-01-17T23:53:40.834Z,20.55
2023-01-17T23:56:46.342Z,21.27
2023-01-17T23:59:51.549Z,21.30
